• Join FlightAware (Why Join?)
  • Login
  • US Flag 
04:10AM EDT


 

Airport Tracker/Info


-or-


 

Live Flight TrackerFlight Track Log ✈ UPS1305 ✈ 12-Mar-2014 ✈ KATL - KSDF

Flight Track Log - Related Links

Times and Time Zones

All times are in EDT time to prevent confusion due to time zone crossing. See the UPS1305 flight status page for this flight to view local times or setup timezone preferences in your user account.

Time Position Orientation Groundspeed Altitude Reporting Facility
EDT Latitude Longitude Course Direction KTS MPH feet Rate Location/Type
10:08PM 33.6500 -84.4833 320° Northwest 180 207 4,300  Level Atlanta TRACON
10:09PM 33.6833 -84.5500 301° West 237 273 7,500 2,520 Climbing Atlanta TRACON
10:14PM 34.0119 -84.3451 320° Northwest  Level FlightAware Approximate
10:15PM 34.2428 -84.5928 358° North 417 480 21,400  Level FlightAware ADS-B (KDZJ)
10:16PM 34.3187 -84.6025 351° North 411 473 22,900 1,920 Climbing FlightAware ADS-B (KDZJ)
10:16PM 34.3965 -84.6215 348° North 415 478 24,000 780 Climbing FlightAware ADS-B (KDZJ)
10:17PM 34.4712 -84.6395 349° North 423 487 24,000 60 Level FlightAware ADS-B (KDZJ)
10:18PM 34.5499 -84.6592 348° North 411 473 24,100 960 Climbing FlightAware ADS-B (KDZJ)
10:18PM 34.6226 -84.6773 348° North 413 475 25,300 1,620 Climbing FlightAware ADS-B (KDZJ)
10:19PM 34.7031 -84.6973 348° North 427 491 26,300 1,320 Climbing FlightAware ADS-B (KDZJ)
10:20PM 34.7835 -84.7170 349° North 446 513 27,100 1,200 Climbing FlightAware ADS-B (KDZJ)
10:20PM 34.8667 -84.7375 348° North 441 507 28,000 660 Climbing FlightAware ADS-B (KDZJ)
10:21PM 34.9465 -84.7571 349° North 446 513 28,000  Level FlightAware ADS-B (KDZJ)
10:22PM 35.0112 -84.7737 348° North 443 510 28,000  Level FlightAware ADS-B (KDZJ)
10:22PM 35.0589 -84.7872 348° North 434 499 28,000  Level Atlanta Center
10:23PM 35.1839 -84.8214 347° North 439 505 28,000  Level Atlanta Center
10:24PM 35.3067 -84.8506 349° North 444 511 28,000  Level Atlanta Center
10:25PM 35.4256 -84.8797 349° North 449 517 28,000  Level Atlanta Center
10:26PM 35.5461 -84.9117 348° North 449 517 28,000  Level Atlanta Center
10:27PM 35.6650 -84.9436 348° North 444 511 28,000  Level Atlanta Center
10:34PM 36.5563 -85.0162 North 460 529 28,000  Level FlightAware ADS-B (KBRY)
10:36PM 36.6797 -85.0093 North 458 527 28,000  Level FlightAware ADS-B (KBRY)
10:37PM 36.8645 -84.9986 North 458 527 28,000 -900 Level FlightAware ADS-B (KBRY)
10:38PM 36.9880 -84.9912 North 437 503 26,300 -2,220 Descending FlightAware ADS-B (KBRY)
10:39PM 37.0924 -84.9864 North 422 486 23,900 -2,580 Descending FlightAware ADS-B (KBRY)
10:40PM 37.2204 -84.9785 North 396 456 21,200 -2,460 Descending FlightAware ADS-B (KBRY)
10:41PM 37.3296 -84.9724 North 387 445 18,800 -2,580 Descending FlightAware ADS-B (KBRY)
10:42PM 37.4302 -84.9663 North 381 438 16,200 -1,980 Descending FlightAware ADS-B (KBRY)
10:43PM 37.5312 -84.9603 North 362 417 14,900 -1,500 Descending FlightAware ADS-B (KBRY)
10:44PM 37.6354 -84.9653 343° North 337 388 13,200 -1,680 Descending FlightAware ADS-B (KBRY)
10:45PM 37.7101 -85.0279 312° West 299 344 11,500 -1,620 Descending FlightAware ADS-B (KBRY)
10:46PM 37.7639 -85.1037 312° West 315 362 10,000 -840 Descending FlightAware ADS-B (KBRY)
10:47PM 37.8255 -85.1890 312° West 309 356 9,900  Descending FlightAware ADS-B (KBRY)
10:48PM 37.8814 -85.2908 285° West 259 298 10,000 -600 Climbing FlightAware ADS-B (KBRY)
10:49PM 37.9029 -85.3925 285° West 241 277 8,500 -1,380 Descending FlightAware ADS-B (KBRY)
10:50PM 37.9246 -85.4908 285° West 239 275 6,800 -1,680 Descending FlightAware ADS-B (KBRY)
10:51PM 37.9320 -85.5258 285° West 238 274 5,800 -2,340 Descending FlightAware ADS-B (KEKX)
10:51PM 37.9421 -85.5717 286° West 239 275 4,500 -1,440 Descending FlightAware ADS-B (KBRY)
10:52PM 37.9585 -85.6463 286° West 195 224 3,600 -780 Descending FlightAware ADS-B (KBRY)
10:53PM 37.9919 -85.6849 345° North 166 191 3,000 -360 Descending FlightAware ADS-B (KBRY)
10:54PM 38.0365 -85.6990 346° North 169 194 2,900 -480 Descending FlightAware ADS-B (KBRY)
10:55PM 38.0779 -85.7128 345° North 147 169 2,100 -900 Descending FlightAware ADS-B (KBRY)
10:56PM 38.1095 -85.7232 345° North 115 132 1,300 -660 Descending FlightAware ADS-B (KBRY)
10:58PM 38.1500 -85.7333 208° Southwest 124 143 600 -540 Descending Louisville TRACON
11:03PM 38.1667 -85.7333 208° Southwest  Level FlightAware Approximate